KGC weather

Kingscote Airport
South Australia, Australia

Public forecast

Using degrees Celsius for public forecast. Weather courtesy of forecast.io.

Closest aviation weather report (METAR) to Kingscote Airport

Closest report is Adelaide International Airport, 67.7 nm (125.3 km) NE. Retrieved 2020/01/21 19:30 UTC (8 minutes ago):

YPAD 211930Z 01012KT CAVOK 23/08 Q0998 NOSIG

Closest aviation forecast (TAF) to Kingscote Airport

Closest forecast is Adelaide International Airport, 67.7 nm (125.3 km) NE. Retrieved 2020/01/21 18:36 UTC (1 hour ago):

TAF YPAD 211734Z 2118/2300 35012KT CAVOK FM212300 25015G25KT 9999 FEW015 BKN025 FM220400 26018KT 9999 -SHRA BKN025 FM221200 29018KT 9999 -SHRA BKN025 INTER 2215/2223 5000 SHRA BKN020